Time;durP1;ratioP1;P1;durP2;ratioP2;P2;SDS_P1;SDS_P2;PMS_P1;PMS_P2;Temp;Humidity;BMP_temperature;BMP_pressure;BME280_temperature;BME280_humidity;BME280_pressure;Samples;Min_cycle;Max_cycle;Signal;HPM_P1;HPM_P2
2021/05/21 00:01:37;;;;;;;9.73;7.70;;;9.50;99.90;;;;;;5059327;28;20209;-68
2021/05/21 00:04:04;;;;;;;7.10;6.50;;;9.40;99.90;;;;;;5059269;28;20257;-68
2021/05/21 00:06:32;;;;;;;7.78;6.63;;;9.50;99.90;;;;;;5054896;28;20223;-68
2021/05/21 00:08:59;;;;;;;8.43;6.18;;;9.60;99.90;;;;;;5055218;28;20236;-68
2021/05/21 00:11:26;;;;;;;7.82;7.03;;;9.60;99.90;;;;;;5058847;28;20232;-68
2021/05/21 00:13:53;;;;;;;9.68;7.10;;;9.40;99.90;;;;;;5060129;28;20754;-68
2021/05/21 00:16:20;;;;;;;8.85;7.70;;;9.40;99.90;;;;;;5058617;28;20210;-69
2021/05/21 00:18:48;;;;;;;8.20;7.50;;;9.50;99.90;;;;;;5053341;28;20405;-67
2021/05/21 00:21:15;;;;;;;8.05;6.65;;;9.50;99.90;;;;;;5051426;28;20200;-68
2021/05/21 00:23:43;;;;;;;7.85;6.47;;;9.60;99.90;;;;;;5059734;28;20384;-70
2021/05/21 00:26:10;;;;;;;8.65;7.65;;;9.40;99.90;;;;;;5059927;28;20203;-67
2021/05/21 00:28:37;;;;;;;10.90;7.88;;;9.30;99.90;;;;;;5055774;28;20206;-69
2021/05/21 00:31:04;;;;;;;8.27;7.22;;;9.30;99.90;;;;;;5048409;28;20426;-68
2021/05/21 00:33:31;;;;;;;10.07;8.45;;;9.50;99.90;;;;;;5049646;28;20200;-67
2021/05/21 00:35:58;;;;;;;9.30;7.85;;;9.50;99.90;;;;;;5045848;28;20210;-68
2021/05/21 00:38:25;;;;;;;8.65;7.45;;;9.50;99.90;;;;;;5050536;28;20415;-68
2021/05/21 00:40:52;;;;;;;9.95;8.10;;;9.60;99.90;;;;;;5052066;28;20297;-68
2021/05/21 00:43:19;;;;;;;12.35;8.05;;;9.50;99.90;;;;;;5051039;28;20212;-68
2021/05/21 00:45:46;;;;;;;10.57;7.97;;;9.50;99.90;;;;;;5058474;28;20254;-68
2021/05/21 00:48:13;;;;;;;10.88;8.10;;;9.30;99.90;;;;;;5058643;28;20208;-67
2021/05/21 00:50:40;;;;;;;12.90;9.27;;;9.30;99.90;;;;;;5057757;28;20204;-67
2021/05/21 00:53:10;;;;;;;10.90;8.85;;;9.40;99.90;;;;;;5058761;28;20223;-67
2021/05/21 00:55:38;;;;;;;12.10;9.02;;;9.50;99.90;;;;;;5050672;28;20455;-67
2021/05/21 00:58:06;;;;;;;9.23;7.82;;;9.50;99.90;;;;;;5054501;28;20232;-67
2021/05/21 01:00:33;;;;;;;12.75;9.05;;;9.40;99.90;;;;;;5054221;28;20212;-67
2021/05/21 01:03:00;;;;;;;10.88;9.70;;;9.20;99.90;;;;;;5058042;28;20211;-66
2021/05/21 01:05:27;;;;;;;13.52;10.63;;;9.30;99.90;;;;;;5057796;28;20651;-67
2021/05/21 01:07:54;;;;;;;11.18;9.70;;;9.40;99.90;;;;;;5054976;28;20287;-66
2021/05/21 01:10:21;;;;;;;13.30;10.10;;;9.40;99.90;;;;;;5057948;28;20211;-68
2021/05/21 01:12:48;;;;;;;12.93;10.40;;;9.10;99.90;;;;;;5058366;28;20507;-67
2021/05/21 01:15:16;;;;;;;8.93;8.13;;;9.20;99.90;;;;;;5058183;28;20531;-68
2021/05/21 01:17:44;;;;;;;11.50;9.90;;;9.30;99.90;;;;;;5056788;28;20232;-68
2021/05/21 01:20:12;;;;;;;12.18;8.52;;;9.30;99.90;;;;;;5056181;28;20196;-67
2021/05/21 01:22:39;;;;;;;13.45;8.73;;;9.20;99.90;;;;;;5056518;28;20215;-68
2021/05/21 01:25:07;;;;;;;9.68;8.30;;;9.00;99.90;;;;;;5054789;28;20203;-67
2021/05/21 01:27:35;;;;;;;15.93;9.63;;;9.20;99.90;;;;;;5056739;28;20204;-69
2021/05/21 01:30:05;;;;;;;12.60;10.00;;;9.10;99.90;;;;;;5056992;28;20213;-68
2021/05/21 01:32:33;;;;;;;9.45;8.45;;;9.20;99.90;;;;;;5052744;28;20366;-68
2021/05/21 01:35:00;;;;;;;14.40;9.63;;;9.20;99.90;;;;;;5055513;28;20216;-67
2021/05/21 01:37:27;;;;;;;15.95;9.65;;;9.30;99.90;;;;;;5043654;28;20648;-67
2021/05/21 01:39:54;;;;;;;11.43;8.48;;;9.20;99.90;;;;;;5048275;28;20215;-67
2021/05/21 01:42:21;;;;;;;13.77;9.40;;;9.30;99.90;;;;;;5046224;28;20212;-67
2021/05/21 01:44:55;;;;;;;15.13;9.98;;;9.40;99.90;;;;;;5057370;28;20209;-67
2021/05/21 01:47:22;;;;;;;11.13;10.00;;;9.40;99.90;;;;;;5058601;28;20553;-67
2021/05/21 01:49:49;;;;;;;10.55;9.45;;;9.40;99.90;;;;;;5057903;28;20212;-67
2021/05/21 01:52:16;;;;;;;11.93;10.63;;;9.30;99.90;;;;;;5056820;28;20254;-67
2021/05/21 01:54:43;;;;;;;15.50;8.93;;;9.30;99.90;;;;;;5058027;28;20240;-67
2021/05/21 01:57:10;;;;;;;11.55;9.75;;;9.30;99.90;;;;;;5044867;28;20534;-67
2021/05/21 01:59:37;;;;;;;10.57;9.55;;;9.20;99.90;;;;;;5057152;28;20528;-67
2021/05/21 02:02:06;;;;;;;11.85;10.63;;;9.00;99.90;;;;;;5046171;28;20216;-68
2021/05/21 02:04:36;;;;;;;14.80;10.15;;;9.00;99.90;;;;;;5057620;28;20349;-67
2021/05/21 02:07:05;;;;;;;10.43;9.43;;;8.60;99.90;;;;;;5045907;28;20219;-67
2021/05/21 02:09:39;;;;;;;14.68;10.43;;;8.50;99.90;;;;;;5053325;28;20526;-68
2021/05/21 02:12:07;;;;;;;13.90;11.13;;;8.50;99.90;;;;;;5056785;28;20235;-67
2021/05/21 02:14:34;;;;;;;13.45;10.45;;;8.70;99.90;;;;;;5041423;28;20196;-67
2021/05/21 02:17:01;;;;;;;16.35;11.95;;;8.60;99.90;;;;;;5039752;28;20270;-67
2021/05/21 02:19:28;;;;;;;12.93;10.27;;;8.60;99.90;;;;;;5041958;28;20199;-67
2021/05/21 02:21:55;;;;;;;12.30;11.02;;;8.70;99.90;;;;;;5039485;28;20227;-68
2021/05/21 02:24:22;;;;;;;11.48;9.18;;;8.70;99.90;;;;;;5042257;28;20207;-68
2021/05/21 02:26:49;;;;;;;12.77;10.30;;;8.70;99.90;;;;;;5053867;28;20224;-68
2021/05/21 02:29:16;;;;;;;15.70;9.60;;;8.60;99.90;;;;;;5048468;28;20204;-68
2021/05/21 02:31:43;;;;;;;13.23;9.52;;;8.70;99.90;;;;;;5061406;28;20449;-67
2021/05/21 02:34:11;;;;;;;10.88;9.60;;;8.90;99.90;;;;;;5054426;28;20224;-67
2021/05/21 02:36:38;;;;;;;11.20;10.10;;;8.90;99.90;;;;;;5060712;28;20207;-68
2021/05/21 02:39:05;;;;;;;12.82;10.40;;;9.00;99.90;;;;;;5055794;28;20526;-67
2021/05/21 02:41:32;;;;;;;9.27;8.38;;;9.20;99.90;;;;;;5055381;28;20243;-66
2021/05/21 02:43:59;;;;;;;11.85;8.57;;;9.10;99.90;;;;;;5060430;28;20208;-67
2021/05/21 02:46:26;;;;;;;11.93;8.73;;;8.90;99.90;;;;;;5061271;28;20255;-68
2021/05/21 02:48:53;;;;;;;11.02;9.27;;;8.80;99.90;;;;;;5062585;28;20218;-68
2021/05/21 02:51:20;;;;;;;11.43;9.07;;;8.70;99.90;;;;;;5060652;28;20393;-67
2021/05/21 02:53:47;;;;;;;8.25;7.40;;;8.70;99.90;;;;;;5060435;28;20259;-67
2021/05/21 02:56:15;;;;;;;8.57;7.70;;;8.80;99.90;;;;;;5057241;28;20218;-67
2021/05/21 02:58:42;;;;;;;11.10;8.25;;;8.80;99.90;;;;;;5060469;28;20578;-67
2021/05/21 03:01:09;;;;;;;10.27;7.70;;;9.00;99.90;;;;;;5059693;28;20211;-67
2021/05/21 03:03:36;;;;;;;10.15;8.88;;;9.10;99.90;;;;;;5057574;28;20251;-66
2021/05/21 03:06:03;;;;;;;9.77;7.40;;;9.20;99.90;;;;;;5058044;28;20242;-68
2021/05/21 03:08:30;;;;;;;9.25;6.90;;;9.20;99.90;;;;;;5056470;28;20247;-67
2021/05/21 03:10:58;;;;;;;13.32;8.45;;;9.00;99.90;;;;;;5059823;28;20208;-68
2021/05/21 03:13:26;;;;;;;10.15;8.57;;;9.00;99.90;;;;;;5058803;28;20226;-68
2021/05/21 03:15:53;;;;;;;8.40;7.47;;;8.80;99.90;;;;;;5059855;28;20246;-68
2021/05/21 03:18:23;;;;;;;8.77;7.97;;;8.80;99.90;;;;;;5059662;28;20238;-67
2021/05/21 03:20:51;;;;;;;10.27;8.80;;;8.90;99.90;;;;;;5059888;28;20210;-66
2021/05/21 03:23:19;;;;;;;9.38;7.43;;;8.90;99.90;;;;;;5057975;28;20608;-67
2021/05/21 03:25:46;;;;;;;9.15;8.25;;;8.80;99.90;;;;;;5058346;28;20533;-67
2021/05/21 03:28:17;;;;;;;9.05;7.35;;;8.80;99.90;;;;;;5059896;28;20220;-67
2021/05/21 03:30:45;;;;;;;13.88;9.23;;;9.00;99.90;;;;;;5059261;28;20605;-67
2021/05/21 03:33:12;;;;;;;12.20;8.65;;;8.90;99.90;;;;;;5060126;28;20287;-67
2021/05/21 03:35:40;;;;;;;10.85;8.18;;;9.00;99.90;;;;;;5056422;28;20209;-66
2021/05/21 03:38:08;;;;;;;10.50;8.20;;;9.20;99.90;;;;;;5057160;28;20297;-68
2021/05/21 03:40:37;;;;;;;9.68;7.78;;;9.20;99.90;;;;;;5056701;28;20334;-67
2021/05/21 03:43:05;;;;;;;17.35;7.85;;;9.30;99.90;;;;;;5059195;28;20246;-67
2021/05/21 03:45:32;;;;;;;9.88;8.57;;;9.20;99.90;;;;;;5057035;28;20208;-67
2021/05/21 03:47:59;;;;;;;18.02;9.10;;;9.20;99.90;;;;;;5057041;28;20291;-67
2021/05/21 03:50:27;;;;;;;8.80;7.07;;;9.20;99.90;;;;;;5059175;28;20200;-68
2021/05/21 03:52:54;;;;;;;9.10;8.10;;;9.30;99.90;;;;;;5059070;28;20208;-68
2021/05/21 03:55:21;;;;;;;9.32;6.63;;;9.30;99.90;;;;;;5058440;28;20204;-68
2021/05/21 03:57:49;;;;;;;11.15;8.18;;;9.30;99.90;;;;;;5058135;28;20434;-67
2021/05/21 04:00:18;;;;;;;10.65;7.57;;;9.50;99.90;;;;;;5057144;28;20206;-67
2021/05/21 04:02:49;;;;;;;9.85;7.53;;;9.60;99.90;;;;;;5058803;28;20210;-69
2021/05/21 04:05:17;;;;;;;12.43;8.18;;;9.70;99.90;;;;;;5056628;28;20343;-68
2021/05/21 04:07:46;;;;;;;9.57;7.82;;;10.00;99.90;;;;;;5056377;28;20279;-67
2021/05/21 04:10:13;;;;;;;9.00;7.18;;;10.00;99.90;;;;;;5057776;28;20209;-68
2021/05/21 04:12:41;;;;;;;10.25;6.95;;;10.10;99.90;;;;;;5058128;28;20204;-68
2021/05/21 04:15:09;;;;;;;6.63;6.05;;;10.10;99.90;;;;;;5057996;28;20232;-67
2021/05/21 04:17:36;;;;;;;9.95;7.95;;;10.20;99.90;;;;;;5056117;28;20283;-67
2021/05/21 04:20:05;;;;;;;8.43;7.63;;;10.40;99.90;;;;;;5058338;28;20508;-68
2021/05/21 04:22:32;;;;;;;8.20;7.43;;;10.50;99.90;;;;;;5056354;28;20207;-67
2021/05/21 04:24:59;;;;;;;13.10;6.40;;;10.50;99.90;;;;;;5058675;28;20455;-67
2021/05/21 04:27:26;;;;;;;9.05;7.50;;;10.50;99.90;;;;;;5058359;28;20221;-67
2021/05/21 04:29:54;;;;;;;7.15;6.45;;;10.50;99.90;;;;;;5058268;28;20198;-67
2021/05/21 04:32:21;;;;;;;6.70;6.10;;;10.60;99.90;;;;;;5057912;28;20230;-68
2021/05/21 04:34:49;;;;;;;7.28;6.40;;;10.60;99.90;;;;;;5058605;28;20239;-67
2021/05/21 04:37:16;;;;;;;7.10;6.50;;;10.70;99.90;;;;;;5056058;28;20211;-68
2021/05/21 04:39:43;;;;;;;7.32;5.65;;;10.80;99.90;;;;;;5056045;28;20199;-68
2021/05/21 04:42:10;;;;;;;7.60;6.80;;;11.00;99.90;;;;;;5058646;28;20234;-67
2021/05/21 04:44:37;;;;;;;7.53;6.65;;;11.00;99.90;;;;;;5055325;28;20206;-68
2021/05/21 04:47:05;;;;;;;14.90;7.45;;;11.40;99.90;;;;;;5056834;28;20206;-67
2021/05/21 04:49:32;;;;;;;6.53;5.93;;;11.60;99.90;;;;;;5057629;28;20210;-66
2021/05/21 04:52:07;;;;;;;7.80;7.00;;;11.60;99.90;;;;;;5058306;28;20218;-67
2021/05/21 04:54:36;;;;;;;8.18;7.28;;;11.70;99.90;;;;;;5055902;28;20210;-67
2021/05/21 04:57:04;;;;;;;8.85;6.65;;;11.90;99.90;;;;;;5057818;28;20237;-67
2021/05/21 04:59:32;;;;;;;8.30;7.50;;;11.90;99.90;;;;;;5056886;28;20235;-67
2021/05/21 05:01:59;;;;;;;7.88;7.07;;;11.90;99.90;;;;;;5057519;28;20245;-67
2021/05/21 05:04:26;;;;;;;9.73;6.45;;;12.00;99.90;;;;;;5053303;28;20215;-67
2021/05/21 05:06:54;;;;;;;8.00;7.15;;;12.00;99.90;;;;;;5057427;28;20210;-68
2021/05/21 05:09:22;;;;;;;6.95;6.28;;;11.90;99.90;;;;;;5054891;28;20218;-68
2021/05/21 05:11:50;;;;;;;7.13;6.45;;;11.80;99.90;;;;;;5056273;28;20417;-67
2021/05/21 05:14:17;;;;;;;6.85;6.25;;;11.80;99.90;;;;;;5057752;28;20383;-67
2021/05/21 05:16:44;;;;;;;9.07;7.35;;;12.00;99.90;;;;;;5056148;28;20206;-66
2021/05/21 05:19:11;;;;;;;8.68;6.53;;;12.40;99.90;;;;;;5057598;28;20230;-68
2021/05/21 05:21:43;;;;;;;7.30;6.60;;;12.90;99.90;;;;;;5055884;28;20209;-67
2021/05/21 05:24:18;;;;;;;7.90;5.80;;;13.40;99.90;;;;;;5056567;28;20402;-69
2021/05/21 05:26:46;;;;;;;8.30;6.10;;;13.70;99.90;;;;;;5054497;28;20199;-68
2021/05/21 05:29:14;;;;;;;7.05;5.93;;;14.00;99.90;;;;;;5055934;28;20241;-68
2021/05/21 05:31:45;;;;;;;6.32;5.25;;;14.30;99.90;;;;;;5057566;28;20282;-67
2021/05/21 05:34:14;;;;;;;6.20;4.93;;;14.40;99.90;;;;;;5057488;28;20203;-68
2021/05/21 05:36:42;;;;;;;8.90;5.93;;;14.60;99.90;;;;;;5053247;28;20207;-67
2021/05/21 05:39:10;;;;;;;15.15;6.72;;;14.90;99.90;;;;;;5050626;28;20232;-67
2021/05/21 05:41:37;;;;;;;8.35;7.20;;;15.40;99.90;;;;;;5049505;28;20610;-68
2021/05/21 05:44:05;;;;;;;7.90;5.68;;;15.80;99.40;;;;;;5058297;28;20215;-68
2021/05/21 05:46:32;;;;;;;6.40;5.87;;;16.40;98.40;;;;;;5055424;28;20482;-68
2021/05/21 05:48:59;;;;;;;6.03;4.80;;;17.20;97.30;;;;;;5056634;28;20496;-67
2021/05/21 05:51:26;;;;;;;5.40;5.00;;;17.60;96.10;;;;;;5046875;28;20424;-68
2021/05/21 05:53:53;;;;;;;6.20;5.70;;;17.30;95.10;;;;;;5057196;28;20457;-68
2021/05/21 05:56:20;;;;;;;6.33;5.37;;;17.40;96.10;;;;;;5055889;28;20510;-68
2021/05/21 05:58:47;;;;;;;6.70;6.00;;;17.50;95.40;;;;;;5056263;28;20458;-68
2021/05/21 06:01:14;;;;;;;5.93;5.33;;;17.60;95.10;;;;;;5057334;28;20454;-69
2021/05/21 06:03:41;;;;;;;6.67;6.07;;;17.90;94.50;;;;;;5057563;28;20433;-67
2021/05/21 06:06:08;;;;;;;8.30;5.60;;;18.10;95.00;;;;;;5054467;28;20428;-68
2021/05/21 06:08:54;;;;;;;7.63;5.90;;;18.90;94.10;;;;;;5056159;28;20468;-67
2021/05/21 06:11:21;;;;;;;5.60;5.20;;;19.60;91.70;;;;;;5057314;28;20595;-69
2021/05/21 06:13:48;;;;;;;6.23;5.70;;;19.60;91.60;;;;;;5057153;28;20444;-68
2021/05/21 06:16:16;;;;;;;5.80;5.40;;;19.50;91.60;;;;;;5057135;28;20415;-68
2021/05/21 06:18:43;;;;;;;5.27;4.87;;;19.60;91.00;;;;;;5053748;28;20844;-68
2021/05/21 06:21:10;;;;;;;5.00;4.70;;;19.60;91.00;;;;;;5055197;28;20617;-67
2021/05/21 06:23:38;;;;;;;5.73;5.23;;;19.70;91.00;;;;;;5054673;28;20419;-67
2021/05/21 06:28:52;;;;;;;5.73;5.30;;;20.90;87.10;;;;;;5054764;28;20415;-68
2021/05/21 06:31:20;;;;;;;5.40;5.10;;;21.00;85.20;;;;;;5051764;28;20715;-67
2021/05/21 06:33:47;;;;;;;8.43;5.73;;;20.60;86.50;;;;;;5056434;28;20411;-67
2021/05/21 06:36:15;;;;;;;5.50;5.10;;;20.20;89.10;;;;;;5054116;28;20420;-68
2021/05/21 06:38:42;;;;;;;5.50;5.20;;;20.40;88.40;;;;;;5054793;28;20808;-68
2021/05/21 06:41:09;;;;;;;5.77;5.47;;;21.00;87.50;;;;;;5056239;28;20483;-67
2021/05/21 06:43:36;;;;;;;5.73;5.43;;;21.00;86.30;;;;;;5053586;28;20419;-67
2021/05/21 06:46:04;;;;;;;6.10;5.70;;;20.70;85.80;;;;;;5056858;28;20445;-67
2021/05/21 06:48:32;;;;;;;7.30;6.50;;;20.80;87.10;;;;;;5052106;28;20442;-67
2021/05/21 06:51:05;;;;;;;6.40;6.00;;;21.50;85.50;;;;;;5053211;28;20441;-66
2021/05/21 06:53:33;;;;;;;7.03;6.10;;;23.10;79.20;;;;;;5056132;28;20452;-68
2021/05/21 06:56:01;;;;;;;6.23;5.83;;;24.60;74.60;;;;;;5057306;28;20443;-68
2021/05/21 06:58:28;;;;;;;5.70;5.33;;;25.20;69.90;;;;;;5050763;28;20872;-68
2021/05/21 07:00:58;;;;;;;5.80;5.50;;;25.40;65.60;;;;;;5051021;28;20595;-68
2021/05/21 07:03:28;;;;;;;9.17;7.10;;;25.10;64.60;;;;;;5056713;28;20666;-67
2021/05/21 07:05:56;;;;;;;6.53;5.97;;;26.40;63.90;;;;;;5056763;28;20440;-69
2021/05/21 07:08:25;;;;;;;6.83;5.90;;;26.40;58.10;;;;;;5055198;28;20456;-68
2021/05/21 07:10:52;;;;;;;7.10;6.60;;;25.60;61.40;;;;;;5056800;28;20447;-68
2021/05/21 07:13:19;;;;;;;6.97;6.57;;;25.10;61.60;;;;;;5058086;28;20462;-69
2021/05/21 07:15:46;;;;;;;6.00;5.70;;;25.00;61.70;;;;;;5060093;28;20437;-68
2021/05/21 07:18:13;;;;;;;6.47;6.07;;;24.90;62.40;;;;;;5056917;28;20480;-69
2021/05/21 07:20:42;;;;;;;6.80;6.37;;;24.60;61.30;;;;;;5060035;28;20476;-68
2021/05/21 07:23:09;;;;;;;6.10;5.77;;;24.20;63.50;;;;;;5055911;28;20453;-68
2021/05/21 07:25:36;;;;;;;6.63;6.27;;;24.00;62.60;;;;;;5053903;28;20447;-69
2021/05/21 07:28:03;;;;;;;5.97;5.67;;;23.70;65.00;;;;;;5059614;28;20445;-68
2021/05/21 07:30:31;;;;;;;6.23;5.93;;;23.20;63.10;;;;;;5058096;28;20500;-68
2021/05/21 07:32:58;;;;;;;6.83;6.23;;;22.50;67.90;;;;;;5059723;28;20457;-68
2021/05/21 07:35:25;;;;;;;6.30;5.90;;;24.20;65.00;;;;;;5056881;28;20453;-68
2021/05/21 07:37:52;;;;;;;5.87;5.60;;;27.10;55.90;;;;;;5057474;28;20452;-68
2021/05/21 07:40:20;;;;;;;7.30;6.90;;;29.50;51.50;;;;;;5055904;28;20818;-68
2021/05/21 07:42:47;;;;;;;8.57;7.93;;;31.30;48.00;;;;;;5060597;28;20437;-67
2021/05/21 07:45:16;;;;;;;7.67;7.37;;;31.70;45.10;;;;;;5047934;28;20601;-67
2021/05/21 07:47:44;;;;;;;7.80;7.40;;;33.50;39.80;;;;;;5046493;28;20433;-68
2021/05/21 07:50:12;;;;;;;8.17;7.77;;;33.90;39.40;;;;;;5054768;28;20691;-69
2021/05/21 07:52:39;;;;;;;9.13;8.67;;;34.70;37.50;;;;;;5058250;28;20489;-70
2021/05/21 07:55:08;;;;;;;8.47;8.07;;;35.10;36.40;;;;;;5059877;28;20451;-69
2021/05/21 07:57:36;;;;;;;8.60;8.20;;;34.60;36.50;;;;;;5058152;28;20440;-69
2021/05/21 08:00:09;;;;;;;7.60;7.30;;;35.80;35.30;;;;;;5057882;28;20563;-69
2021/05/21 08:02:37;;;;;;;7.80;7.50;;;34.90;34.80;;;;;;5054037;28;20832;-69
2021/05/21 08:05:05;;;;;;;7.87;7.57;;;32.30;35.70;;;;;;5058866;28;20509;-68
2021/05/21 08:07:33;;;;;;;7.40;6.80;;;31.10;38.80;;;;;;5053107;28;20443;-68
2021/05/21 08:10:02;;;;;;;7.87;7.47;;;31.50;39.50;;;;;;5053565;28;20473;-69
2021/05/21 08:12:29;;;;;;;7.80;7.20;;;30.30;40.60;;;;;;5055092;28;20476;-68
2021/05/21 08:14:56;;;;;;;7.80;7.30;;;29.60;40.40;;;;;;5058073;28;20445;-69
2021/05/21 08:17:24;;;;;;;7.77;7.37;;;30.30;41.10;;;;;;5079068;28;20447;-69
2021/05/21 08:20:09;;;;;;;7.53;7.23;;;32.10;37.80;;;;;;5057574;28;20477;-70
2021/05/21 08:22:36;;;;;;;7.60;7.13;;;33.40;35.40;;;;;;5057790;28;20831;-68
2021/05/21 08:25:05;;;;;;;6.70;6.40;;;33.80;33.70;;;;;;5058287;28;20451;-69
2021/05/21 08:27:32;;;;;;;6.60;6.40;;;34.60;32.00;;;;;;5058977;28;20505;-70
2021/05/21 08:30:00;;;;;;;7.50;7.20;;;35.20;32.60;;;;;;5057288;28;20789;-70
2021/05/21 08:32:29;;;;;;;7.47;7.17;;;35.90;31.80;;;;;;5050615;28;20471;-69
2021/05/21 08:34:56;;;;;;;7.30;6.93;;;35.40;31.10;;;;;;5054357;28;20453;-70
2021/05/21 08:37:23;;;;;;;8.60;7.10;;;35.00;31.30;;;;;;5048964;28;20489;-70
2021/05/21 08:39:51;;;;;;;7.10;6.80;;;36.00;30.40;;;;;;5056714;28;20829;-70
2021/05/21 08:42:20;;;;;;;7.07;6.87;;;36.00;29.90;;;;;;5056118;28;20450;-69
2021/05/21 08:44:49;;;;;;;7.10;6.80;;;35.30;30.60;;;;;;5056298;28;20527;-70
2021/05/21 08:47:17;;;;;;;8.50;8.00;;;35.30;31.00;;;;;;5055611;28;20453;-70
2021/05/21 08:49:49;;;;;;;8.10;7.73;;;36.40;30.10;;;;;;5056094;28;20448;-69
2021/05/21 08:52:16;;;;;;;7.67;7.27;;;35.40;30.20;;;;;;5059126;28;20464;-69
2021/05/21 08:54:45;;;;;;;7.80;7.40;;;34.80;31.60;;;;;;5056394;28;20441;-69
2021/05/21 08:57:18;;;;;;;8.63;8.03;;;36.10;30.20;;;;;;5053201;28;20479;-71
2021/05/21 08:59:46;;;;;;;7.00;6.80;;;36.00;29.80;;;;;;5052950;28;20576;-69
2021/05/21 09:02:25;;;;;;;6.77;6.40;;;34.90;31.00;;;;;;5044616;28;20441;-71
2021/05/21 09:05:00;;;;;;;7.70;7.30;;;33.60;32.70;;;;;;5057783;28;20448;-70
2021/05/21 09:07:32;;;;;;;7.20;6.90;;;32.50;34.80;;;;;;5053646;28;20444;-68
2021/05/21 09:10:12;;;;;;;6.77;6.47;;;31.80;34.30;;;;;;5057899;28;20448;-69
2021/05/21 09:12:41;;;;;;;6.97;6.67;;;31.00;35.20;;;;;;5057986;28;20495;-70
2021/05/21 09:15:20;;;;;;;7.50;7.20;;;31.40;35.70;;;;;;5058248;28;20601;-70
2021/05/21 09:17:56;;;;;;;7.47;7.17;;;33.00;33.10;;;;;;5057913;28;20814;-70
2021/05/21 09:20:25;;;;;;;7.13;6.73;;;33.80;31.70;;;;;;5053008;28;20485;-71
2021/05/21 09:23:14;;;;;;;8.77;8.37;;;33.10;31.30;;;;;;5059085;28;20441;-70
2021/05/21 09:25:53;;;;;;;6.70;6.30;;;33.20;32.70;;;;;;5055144;28;20464;-71
2021/05/21 09:28:34;;;;;;;6.77;6.57;;;31.90;33.60;;;;;;5057601;28;20496;-70
2021/05/21 09:31:09;;;;;;;7.10;6.80;;;29.70;36.90;;;;;;5058102;28;20671;-70
2021/05/21 09:33:38;;;;;;;6.37;6.07;;;28.10;39.90;;;;;;5057520;28;20914;-70
2021/05/21 09:36:05;;;;;;;6.43;6.13;;;26.50;41.80;;;;;;5057604;28;20446;-69
2021/05/21 09:38:47;;;;;;;6.47;6.07;;;25.40;43.10;;;;;;5056940;28;20472;-69
2021/05/21 09:41:14;;;;;;;5.67;5.47;;;24.80;44.00;;;;;;5056542;28;20473;-71
2021/05/21 09:43:48;;;;;;;6.30;6.00;;;24.20;46.40;;;;;;5058185;28;20461;-73
2021/05/21 09:46:15;;;;;;;5.40;5.20;;;23.90;46.80;;;;;;5057284;28;20440;-71
2021/05/21 09:48:42;;;;;;;5.87;5.40;;;23.40;47.50;;;;;;5056756;28;20449;-71
2021/05/21 09:51:12;;;;;;;6.80;6.40;;;23.30;48.80;;;;;;5058348;28;20647;-72
2021/05/21 09:53:40;;;;;;;6.00;5.80;;;23.20;49.10;;;;;;5042609;28;20440;-71
2021/05/21 09:56:19;;;;;;;5.70;5.50;;;23.30;49.60;;;;;;5046823;28;20480;-71
2021/05/21 09:58:51;;;;;;;13.33;8.03;;;23.00;49.00;;;;;;5043004;28;20474;-72
2021/05/21 10:01:20;;;;;;;6.63;5.30;;;22.80;49.20;;;;;;5045841;28;20796;-70
2021/05/21 10:03:49;;;;;;;5.30;5.10;;;22.80;49.50;;;;;;5046775;28;20809;-70
2021/05/21 10:06:17;;;;;;;5.77;5.47;;;22.80;50.90;;;;;;5058110;28;20411;-71
2021/05/21 10:08:46;;;;;;;5.50;5.30;;;22.70;51.20;;;;;;5055632;28;20407;-71
2021/05/21 10:11:15;;;;;;;6.17;5.87;;;22.60;51.40;;;;;;5039506;28;20449;-71
2021/05/21 10:13:44;;;;;;;5.97;5.67;;;22.70;50.70;;;;;;5051739;28;20451;-70
2021/05/21 10:16:13;;;;;;;5.77;5.57;;;22.70;51.20;;;;;;5054839;28;20493;-71
2021/05/21 10:18:45;;;;;;;5.50;5.30;;;22.70;52.00;;;;;;5046835;28;20442;-69
2021/05/21 10:21:14;;;;;;;5.60;5.40;;;22.90;52.00;;;;;;5046799;28;20445;-72
2021/05/21 10:23:58;;;;;;;7.30;5.20;;;22.80;50.00;;;;;;5055154;28;20694;-71
2021/05/21 10:26:33;;;;;;;5.70;5.40;;;22.90;50.60;;;;;;5046512;28;20828;-71
2021/05/21 10:29:05;;;;;;;5.90;5.60;;;22.90;49.70;;;;;;5056750;28;20547;-72
2021/05/21 10:31:32;;;;;;;6.00;5.60;;;22.90;51.00;;;;;;5046503;28;20447;-71
2021/05/21 10:34:22;;;;;;;5.73;5.43;;;23.00;50.20;;;;;;5046216;28;20456;-71
2021/05/21 10:36:50;;;;;;;5.50;5.20;;;23.10;49.60;;;;;;5049468;28;20437;-71
2021/05/21 10:39:21;;;;;;;5.87;5.57;;;23.10;47.60;;;;;;5053824;28;20864;-70
2021/05/21 10:41:55;;;;;;;5.30;5.10;;;23.10;48.20;;;;;;5056905;28;20471;-71
2021/05/21 10:44:35;;;;;;;5.13;4.93;;;23.00;48.40;;;;;;5055349;28;20734;-73
2021/05/21 10:47:23;;;;;;;5.00;4.80;;;22.90;47.80;;;;;;5057109;28;20587;-72
2021/05/21 10:49:50;;;;;;;5.33;5.13;;;23.00;48.00;;;;;;5061230;28;20444;-72
2021/05/21 10:52:41;;;;;;;5.40;5.20;;;23.10;48.70;;;;;;5062069;28;20411;-71
2021/05/21 10:55:08;;;;;;;5.40;5.10;;;23.00;48.00;;;;;;5059014;28;20423;-72
2021/05/21 10:57:35;;;;;;;6.07;5.60;;;23.10;48.50;;;;;;5060048;28;20440;-69
2021/05/21 11:00:03;;;;;;;5.30;5.10;;;23.30;49.40;;;;;;5060596;28;20495;-74
2021/05/21 11:02:43;;;;;;;5.90;5.50;;;23.40;49.00;;;;;;5057172;28;20493;-71
2021/05/21 11:05:39;;;;;;;5.53;5.33;;;23.50;47.50;;;;;;5058395;28;20751;-72
2021/05/21 11:08:12;;;;;;;5.43;5.10;;;23.70;48.30;;;;;;5051535;28;20484;-72
2021/05/21 11:10:42;;;;;;;5.43;5.20;;;23.50;48.60;;;;;;5055626;28;20512;-71
2021/05/21 11:13:12;;;;;;;4.67;4.37;;;23.50;49.00;;;;;;5057010;28;20415;-71
2021/05/21 11:15:53;;;;;;;4.30;4.10;;;23.40;48.80;;;;;;5059803;28;20419;-72
2021/05/21 11:18:23;;;;;;;5.60;5.10;;;23.30;49.40;;;;;;5058705;28;20421;-74
2021/05/21 11:21:10;;;;;;;4.80;4.50;;;23.70;48.80;;;;;;5060185;28;20458;-71
2021/05/21 11:23:45;;;;;;;4.70;4.50;;;24.10;47.80;;;;;;5058167;28;20433;-72
2021/05/21 11:26:13;;;;;;;5.07;4.77;;;24.10;49.10;;;;;;5059388;28;20707;-71
2021/05/21 11:28:48;;;;;;;5.10;4.80;;;24.20;48.00;;;;;;5055254;28;20768;-73
2021/05/21 11:31:33;;;;;;;4.90;4.60;;;24.10;47.50;;;;;;5051974;28;20467;-72
2021/05/21 11:34:03;;;;;;;6.40;5.03;;;23.90;47.40;;;;;;5056040;28;20428;-72
2021/05/21 11:36:34;;;;;;;4.73;4.53;;;23.80;48.00;;;;;;5060080;28;20463;-70
2021/05/21 11:39:04;;;;;;;4.53;4.30;;;23.90;48.60;;;;;;5056687;28;20603;-73
2021/05/21 11:41:34;;;;;;;4.83;4.50;;;24.10;48.60;;;;;;5058297;28;20798;-71
2021/05/21 11:44:04;;;;;;;4.33;4.23;;;24.30;47.50;;;;;;5059642;28;20464;-72
2021/05/21 11:46:38;;;;;;;5.37;4.87;;;24.10;47.40;;;;;;5057196;28;20453;-70
2021/05/21 11:49:10;;;;;;;4.60;4.30;;;24.10;46.40;;;;;;5057981;28;20415;-71
2021/05/21 11:51:37;;;;;;;5.00;4.80;;;24.10;47.40;;;;;;5056847;28;20707;-70
2021/05/21 11:54:05;;;;;;;5.20;5.00;;;23.90;45.70;;;;;;5051763;28;20422;-71
2021/05/21 11:56:37;;;;;;;4.80;4.67;;;24.10;46.00;;;;;;5060166;28;20444;-72
2021/05/21 11:59:10;;;;;;;5.33;5.03;;;24.10;46.60;;;;;;5058614;28;20441;-71
2021/05/21 12:01:43;;;;;;;4.80;4.60;;;24.20;45.20;;;;;;5052877;28;20422;-70
2021/05/21 12:04:10;;;;;;;5.37;5.07;;;24.40;45.80;;;;;;5058101;28;20616;-71
2021/05/21 12:06:41;;;;;;;5.50;5.10;;;24.50;44.90;;;;;;5059127;28;20900;-71
2021/05/21 12:09:09;;;;;;;4.80;4.60;;;24.60;44.80;;;;;;5051814;28;20451;-71
2021/05/21 12:11:37;;;;;;;4.77;4.57;;;24.70;44.70;;;;;;5058223;28;20419;-72
2021/05/21 12:14:06;;;;;;;4.90;4.70;;;24.80;44.20;;;;;;5053305;28;20513;-73
2021/05/21 12:16:35;;;;;;;4.80;4.60;;;24.60;44.90;;;;;;5051931;28;20439;-72
2021/05/21 12:19:07;;;;;;;4.80;4.60;;;24.50;44.70;;;;;;5056567;28;20528;-72
2021/05/21 12:21:38;;;;;;;5.13;4.83;;;24.40;44.70;;;;;;5056544;28;20598;-73
2021/05/21 12:24:06;;;;;;;7.00;4.97;;;24.50;45.60;;;;;;5058482;28;20775;-71
2021/05/21 12:26:36;;;;;;;5.00;4.70;;;24.60;44.80;;;;;;5055073;28;20448;-71
2021/05/21 12:29:08;;;;;;;4.83;4.63;;;24.80;44.80;;;;;;5058136;28;20498;-71
2021/05/21 12:31:48;;;;;;;5.00;4.60;;;24.60;44.10;;;;;;5053255;28;20450;-71
2021/05/21 12:34:18;;;;;;;6.87;6.37;;;24.50;43.00;;;;;;5054971;28;20495;-71
2021/05/21 12:36:57;;;;;;;5.57;5.37;;;24.20;44.20;;;;;;5056224;28;20434;-74
2021/05/21 12:39:41;;;;;;;5.30;5.10;;;24.00;44.40;;;;;;5057197;28;20455;-71
2021/05/21 12:42:12;;;;;;;5.20;4.90;;;23.90;44.80;;;;;;5057610;28;20468;-72
2021/05/21 12:44:44;;;;;;;4.63;4.33;;;24.00;44.90;;;;;;5054057;28;20659;-70
2021/05/21 12:47:14;;;;;;;5.27;5.03;;;24.20;43.80;;;;;;5055274;28;20757;-73
2021/05/21 12:49:46;;;;;;;5.10;4.90;;;24.20;44.40;;;;;;5088003;28;20786;-71
2021/05/21 12:52:13;;;;;;;5.47;5.17;;;24.30;45.00;;;;;;5058335;28;20472;-72
2021/05/21 12:54:43;;;;;;;5.37;4.80;;;24.10;44.20;;;;;;5058285;28;20447;-72
2021/05/21 12:57:20;;;;;;;4.63;4.50;;;24.20;45.00;;;;;;5058254;28;20420;-71
2021/05/21 12:59:57;;;;;;;4.87;4.67;;;24.20;44.60;;;;;;5058763;28;20450;-72
2021/05/21 13:02:32;;;;;;;5.10;4.70;;;24.10;44.80;;;;;;5055820;28;20633;-73